Shalalth, Canada
Current Conditions -  °F | °C
As of 6:43 AM on Friday 24 Oct 2014 (Local Time) from CYIN Reporting Station
Haze Haze  
Wind Chill: 25°   Ceiling: 100
Heat Index: 25°   Visibility: 2.5mi
Dew Point: 23°   Wind: 2mph
Humidity: 93%   Direction: NA
Pressure: 29.96"   Gusts: NA
Location:  50.73°N, 122.23°W
Report Text: CYIN 241343Z AUTO VRB02KT 2 1/2SM BR BKN001 OVC075 M04/M05 A2996 RMK SLP181
Loading
Personal Weather Stations






























Interactive Weather Map New forecast layout! Learn more

10-Day Weather Forecast

Advertisements
Track Severe Weather on mobile